createdAt,value
2019-03-06T00:00:20.740Z,1006.41
2019-03-06T00:01:21.324Z,1006.55
2019-03-06T00:02:21.950Z,1006.40
2019-03-06T00:03:22.532Z,1006.40
2019-03-06T00:04:23.106Z,1006.43
2019-03-06T00:05:23.683Z,1006.34
2019-03-06T00:06:24.429Z,1006.33
2019-03-06T00:07:25.059Z,1006.41
2019-03-06T00:08:25.687Z,1006.44
2019-03-06T00:09:26.267Z,1006.39
2019-03-06T00:10:26.894Z,1006.40
2019-03-06T00:11:27.472Z,1006.52
2019-03-06T00:12:28.051Z,1006.40
2019-03-06T00:13:28.632Z,1006.42
2019-03-06T00:14:29.210Z,1006.37
2019-03-06T00:15:29.907Z,1006.48
2019-03-06T00:16:30.484Z,1006.56
2019-03-06T00:17:31.063Z,1006.47
2019-03-06T00:18:31.694Z,1006.47
2019-03-06T00:19:32.269Z,1006.42
2019-03-06T00:20:32.847Z,1006.51
2019-03-06T00:21:33.434Z,1006.45
2019-03-06T00:22:34.007Z,1006.44
2019-03-06T00:23:34.634Z,1006.51
2019-03-06T00:24:35.213Z,1006.50
2019-03-06T00:25:36.051Z,1006.43
2019-03-06T00:26:36.629Z,1006.49
2019-03-06T00:27:37.210Z,1006.44
2019-03-06T00:28:37.788Z,1006.46
2019-03-06T00:29:38.367Z,1006.52
2019-03-06T00:30:39.046Z,1006.54
2019-03-06T00:31:39.626Z,1006.35
2019-03-06T00:32:40.203Z,1006.37
2019-03-06T00:33:40.782Z,1006.41
2019-03-06T00:34:41.410Z,1006.32
2019-03-06T00:35:41.987Z,1006.51
2019-03-06T00:36:42.666Z,1006.34
2019-03-06T00:37:43.243Z,1006.39
2019-03-06T00:38:43.823Z,1006.29
2019-03-06T00:39:44.402Z,1006.35
2019-03-06T00:40:44.980Z,1006.44
2019-03-06T00:41:45.558Z,1006.29
2019-03-06T00:42:46.136Z,1006.34
2019-03-06T00:43:46.716Z,1006.34
2019-03-06T00:44:47.468Z,1006.30
2019-03-06T00:45:48.067Z,1006.34
2019-03-06T00:46:48.721Z,1006.23
2019-03-06T00:47:49.261Z,1006.32
2019-03-06T00:48:49.887Z,1006.38
2019-03-06T00:49:50.467Z,1006.38
2019-03-06T00:50:51.047Z,1006.31
2019-03-06T00:51:51.677Z,1006.42
2019-03-06T00:52:52.257Z,1006.31
2019-03-06T00:53:52.882Z,1006.33
2019-03-06T00:54:53.502Z,1006.28
2019-03-06T00:55:54.043Z,1006.29
2019-03-06T00:56:54.619Z,1006.19
2019-03-06T00:57:55.202Z,1006.24
2019-03-06T00:58:55.776Z,1006.14
2019-03-06T00:59:56.354Z,1006.10
2019-03-06T01:00:56.933Z,1006.10
2019-03-06T01:01:57.511Z,1005.92
2019-03-06T01:02:58.089Z,1005.95
2019-03-06T01:03:58.851Z,1005.88
2019-03-06T01:04:59.471Z,1005.76
2019-03-06T01:06:00.049Z,1005.74
2019-03-06T01:07:00.627Z,1005.64
2019-03-06T01:08:01.256Z,1005.48
2019-03-06T01:09:01.836Z,1005.49
2019-03-06T01:10:02.415Z,1005.38
2019-03-06T01:11:03.038Z,1005.48
2019-03-06T01:12:03.617Z,1005.49
2019-03-06T01:13:04.195Z,1005.54
2019-03-06T01:14:04.987Z,1005.62
2019-03-06T01:15:05.567Z,1005.55
2019-03-06T01:16:06.150Z,1005.47
2019-03-06T01:17:06.776Z,1005.66
2019-03-06T01:18:07.354Z,1005.53
2019-03-06T01:19:07.933Z,1005.50
2019-03-06T01:20:08.514Z,1005.46
2019-03-06T01:21:09.093Z,1005.40
2019-03-06T01:22:09.723Z,1005.28
2019-03-06T01:23:10.463Z,1005.17
2019-03-06T01:24:11.091Z,1005.03
2019-03-06T01:25:11.670Z,1005.29
2019-03-06T01:26:12.250Z,1005.44
2019-03-06T01:27:12.828Z,1005.54
2019-03-06T01:28:13.411Z,1005.51
2019-03-06T01:29:13.985Z,1005.55
2019-03-06T01:30:14.564Z,1005.52
2019-03-06T01:31:15.139Z,1005.55
2019-03-06T01:32:15.766Z,1005.52
2019-03-06T01:33:16.485Z,1005.58
2019-03-06T01:34:17.065Z,1005.44
2019-03-06T01:35:17.643Z,1005.54
2019-03-06T01:36:18.220Z,1005.50
2019-03-06T01:37:18.799Z,1005.39
2019-03-06T01:38:19.384Z,1005.46
2019-03-06T01:39:19.956Z,1005.38
2019-03-06T01:40:20.533Z,1005.31
2019-03-06T01:41:21.115Z,1005.31
2019-03-06T01:42:21.741Z,1005.38
2019-03-06T01:43:22.557Z,1005.40
2019-03-06T01:44:23.184Z,1005.40
2019-03-06T01:45:23.764Z,1005.47
2019-03-06T01:46:24.345Z,1005.42
2019-03-06T01:47:24.922Z,1005.38
2019-03-06T01:48:25.550Z,1005.42
2019-03-06T01:49:26.181Z,1005.31
2019-03-06T01:50:26.762Z,1005.42
2019-03-06T01:51:27.339Z,1005.36
2019-03-06T01:52:28.019Z,1005.40
2019-03-06T01:53:28.581Z,1005.37
2019-03-06T01:54:29.157Z,1005.36
2019-03-06T01:55:29.736Z,1005.37
2019-03-06T01:56:30.315Z,1005.37
2019-03-06T01:57:30.895Z,1005.37
2019-03-06T01:58:31.474Z,1005.31
2019-03-06T01:59:32.051Z,1005.18
2019-03-06T02:00:32.630Z,1005.09
2019-03-06T02:01:33.261Z,1005.09
2019-03-06T02:02:34.015Z,1005.09
2019-03-06T02:03:34.594Z,1005.02
2019-03-06T02:04:35.173Z,1004.98
2019-03-06T02:05:35.753Z,1004.99
2019-03-06T02:06:36.382Z,1004.90
2019-03-06T02:07:37.011Z,1004.90
2019-03-06T02:08:37.589Z,1005.02
2019-03-06T02:09:38.219Z,1004.94
2019-03-06T02:10:38.797Z,1004.93
2019-03-06T02:11:39.376Z,1004.88
2019-03-06T02:12:39.957Z,1004.84
2019-03-06T02:13:40.536Z,1004.85
2019-03-06T02:14:41.117Z,1004.81
2019-03-06T02:15:41.698Z,1004.88
2019-03-06T02:16:42.276Z,1004.75
2019-03-06T02:17:42.905Z,1004.88
2019-03-06T02:18:43.486Z,1004.80
2019-03-06T02:19:44.065Z,1004.85
2019-03-06T02:20:44.641Z,1004.84
2019-03-06T02:21:45.457Z,1004.76
2019-03-06T02:22:46.027Z,1004.73
2019-03-06T02:23:46.606Z,1004.66
2019-03-06T02:24:47.188Z,1004.75
2019-03-06T02:25:47.818Z,1004.68
2019-03-06T02:26:48.392Z,1004.71
2019-03-06T02:27:48.973Z,1004.70
2019-03-06T02:28:49.548Z,1004.73
2019-03-06T02:29:50.126Z,1004.68
2019-03-06T02:30:50.707Z,1004.78
2019-03-06T02:31:51.286Z,1004.70
2019-03-06T02:32:51.864Z,1004.72
2019-03-06T02:33:52.448Z,1004.73
2019-03-06T02:34:53.026Z,1004.66
2019-03-06T02:35:53.654Z,1004.60
2019-03-06T02:36:54.231Z,1004.48
2019-03-06T02:37:54.812Z,1004.44
2019-03-06T02:38:55.388Z,1004.53
2019-03-06T02:39:55.969Z,1004.51
2019-03-06T02:40:56.641Z,1004.48
2019-03-06T02:41:57.221Z,1004.50
2019-03-06T02:42:57.801Z,1004.49
2019-03-06T02:43:58.426Z,1004.42
2019-03-06T02:44:59.011Z,1004.51
2019-03-06T02:45:59.637Z,1004.38
2019-03-06T02:47:00.234Z,1004.39
2019-03-06T02:48:00.793Z,1004.38
2019-03-06T02:49:01.373Z,1004.46
2019-03-06T02:50:01.990Z,1004.40
2019-03-06T02:51:02.576Z,1004.47
2019-03-06T02:52:03.150Z,1004.37
2019-03-06T02:53:03.776Z,1004.32
2019-03-06T02:54:04.368Z,1004.30
2019-03-06T02:55:04.932Z,1004.35
2019-03-06T02:56:05.509Z,1004.24
2019-03-06T02:57:06.089Z,1004.28
2019-03-06T02:58:06.669Z,1004.30
2019-03-06T02:59:07.479Z,1004.28
2019-03-06T03:00:08.056Z,1004.20
2019-03-06T03:01:08.636Z,1004.16
2019-03-06T03:02:09.213Z,1004.17
2019-03-06T03:03:09.788Z,1004.19
2019-03-06T03:04:10.369Z,1004.20
2019-03-06T03:05:10.946Z,1004.22
2019-03-06T03:06:11.529Z,1004.20
2019-03-06T03:07:12.106Z,1004.26
2019-03-06T03:08:12.773Z,1004.12
2019-03-06T03:09:13.355Z,1004.18
2019-03-06T03:10:13.937Z,1004.11
2019-03-06T03:11:14.561Z,1004.01
2019-03-06T03:12:15.187Z,1003.98
2019-03-06T03:13:15.767Z,1004.12
2019-03-06T03:14:16.343Z,1003.83
2019-03-06T03:15:16.923Z,1003.89
2019-03-06T03:16:17.503Z,1003.78
2019-03-06T03:17:18.133Z,1003.76
2019-03-06T03:18:18.754Z,1003.77
2019-03-06T03:19:19.331Z,1003.72
2019-03-06T03:20:19.911Z,1003.74
2019-03-06T03:21:20.489Z,1003.72
2019-03-06T03:22:21.066Z,1003.83
2019-03-06T03:23:21.648Z,1003.76
2019-03-06T03:24:22.224Z,1003.74
2019-03-06T03:25:22.805Z,1003.83
2019-03-06T03:26:23.381Z,1003.74
2019-03-06T03:27:24.099Z,1003.74
2019-03-06T03:28:24.729Z,1003.73
2019-03-06T03:29:25.320Z,1003.78
2019-03-06T03:30:25.932Z,1003.70
2019-03-06T03:31:26.510Z,1003.75
2019-03-06T03:32:27.089Z,1003.69
2019-03-06T03:33:27.672Z,1003.66
2019-03-06T03:34:28.308Z,1003.63
2019-03-06T03:35:28.876Z,1003.53
2019-03-06T03:36:29.497Z,1003.58
2019-03-06T03:37:30.075Z,1003.58
2019-03-06T03:38:30.657Z,1003.52
2019-03-06T03:39:31.237Z,1003.55
2019-03-06T03:40:31.818Z,1003.61
2019-03-06T03:41:32.409Z,1003.65
2019-03-06T03:42:32.979Z,1003.52
2019-03-06T03:43:33.655Z,1003.55
2019-03-06T03:44:34.244Z,1003.54
2019-03-06T03:45:35.037Z,1003.53
2019-03-06T03:46:35.667Z,1003.58
2019-03-06T03:47:36.244Z,1003.53
2019-03-06T03:48:36.829Z,1003.47
2019-03-06T03:49:37.400Z,1003.50
2019-03-06T03:50:37.981Z,1003.48
2019-03-06T03:51:38.565Z,1003.48
2019-03-06T03:52:39.138Z,1003.48
2019-03-06T03:53:39.716Z,1003.53
2019-03-06T03:54:40.296Z,1003.51
2019-03-06T03:55:40.874Z,1003.45
2019-03-06T03:56:41.453Z,1003.45
2019-03-06T03:57:42.029Z,1003.46
2019-03-06T03:58:42.620Z,1003.45
2019-03-06T03:59:43.189Z,1003.45
2019-03-06T04:00:43.767Z,1003.32
2019-03-06T04:01:44.345Z,1003.22
2019-03-06T04:02:44.929Z,1003.23
2019-03-06T04:03:45.502Z,1003.24
2019-03-06T04:04:46.081Z,1003.26
2019-03-06T04:05:46.713Z,1003.37
2019-03-06T04:06:47.295Z,1003.29
2019-03-06T04:07:47.923Z,1003.29
2019-03-06T04:08:48.497Z,1003.14
2019-03-06T04:09:49.124Z,1003.23
2019-03-06T04:10:49.756Z,1003.21
2019-03-06T04:11:50.384Z,1003.14
2019-03-06T04:12:50.964Z,1003.16
2019-03-06T04:13:52.053Z,1003.14
2019-03-06T04:14:52.633Z,1003.13
2019-03-06T04:15:53.211Z,1003.18
2019-03-06T04:16:53.791Z,1003.21
2019-03-06T04:17:54.372Z,1003.05
2019-03-06T04:18:54.949Z,1003.07
2019-03-06T04:19:55.529Z,1003.02
2019-03-06T04:20:56.109Z,1003.05
2019-03-06T04:21:56.686Z,1003.08
2019-03-06T04:22:57.455Z,1003.09
2019-03-06T04:23:58.034Z,1003.06
2019-03-06T04:24:58.664Z,1003.11
2019-03-06T04:25:59.245Z,1003.07
2019-03-06T04:26:59.821Z,1003.05
2019-03-06T04:28:00.451Z,1003.01
2019-03-06T04:29:01.123Z,1003.00
2019-03-06T04:30:01.753Z,1002.94
2019-03-06T04:31:02.334Z,1003.00
2019-03-06T04:32:03.144Z,1003.03
2019-03-06T04:33:03.724Z,1003.06
2019-03-06T04:34:04.356Z,1003.07
2019-03-06T04:35:04.978Z,1003.04
2019-03-06T04:36:05.555Z,1002.92
2019-03-06T04:37:06.134Z,1002.93
2019-03-06T04:38:06.712Z,1002.97
2019-03-06T04:39:07.289Z,1002.87
2019-03-06T04:40:07.917Z,1002.78
2019-03-06T04:41:08.498Z,1002.76
2019-03-06T04:42:09.115Z,1002.76
2019-03-06T04:43:09.694Z,1002.81
2019-03-06T04:44:10.273Z,1002.74
2019-03-06T04:45:10.902Z,1002.74
2019-03-06T04:46:11.480Z,1002.83
2019-03-06T04:47:12.066Z,1002.82
2019-03-06T04:48:12.689Z,1002.87
2019-03-06T04:49:13.266Z,1002.88
2019-03-06T04:50:13.846Z,1002.86
2019-03-06T04:51:14.649Z,1002.87
2019-03-06T04:52:15.227Z,1002.84
2019-03-06T04:53:15.807Z,1002.81
2019-03-06T04:54:16.388Z,1002.76
2019-03-06T04:55:16.966Z,1002.78
2019-03-06T04:56:17.549Z,1002.78
2019-03-06T04:57:18.126Z,1002.73
2019-03-06T04:58:18.754Z,1002.72
2019-03-06T04:59:19.332Z,1002.76
2019-03-06T05:00:19.910Z,1002.74
2019-03-06T05:01:20.489Z,1002.71
2019-03-06T05:02:21.068Z,1002.65
2019-03-06T05:03:21.647Z,1002.65
2019-03-06T05:04:22.275Z,1002.65
2019-03-06T05:05:22.901Z,1002.65
2019-03-06T05:06:23.480Z,1002.65
2019-03-06T05:07:24.059Z,1002.67
2019-03-06T05:08:24.637Z,1002.65
2019-03-06T05:09:25.265Z,1002.61
2019-03-06T05:10:26.013Z,1002.53
2019-03-06T05:11:26.590Z,1002.62
2019-03-06T05:12:27.168Z,1002.61
2019-03-06T05:13:27.749Z,1002.58
2019-03-06T05:14:28.330Z,1002.53
2019-03-06T05:15:28.955Z,1002.47
2019-03-06T05:16:29.585Z,1002.41
2019-03-06T05:17:30.165Z,1002.33
2019-03-06T05:18:30.793Z,1002.30
2019-03-06T05:19:31.527Z,1002.27
2019-03-06T05:20:32.095Z,1002.22
2019-03-06T05:21:32.677Z,1002.19
2019-03-06T05:22:33.255Z,1002.16
2019-03-06T05:23:33.832Z,1002.22
2019-03-06T05:24:34.414Z,1002.16
2019-03-06T05:25:36.169Z,1002.10
2019-03-06T05:26:36.563Z,1002.12
2019-03-06T05:27:37.150Z,1002.06
2019-03-06T05:28:37.737Z,1002.14
2019-03-06T05:29:38.516Z,1002.19
2019-03-06T05:30:39.094Z,1002.19
2019-03-06T05:31:39.722Z,1002.20
2019-03-06T05:32:40.374Z,1002.12
2019-03-06T05:33:40.926Z,1002.10
2019-03-06T05:34:41.503Z,1002.06
2019-03-06T05:35:42.079Z,1002.26
2019-03-06T05:36:42.708Z,1002.17
2019-03-06T05:37:43.285Z,1002.08
2019-03-06T05:38:43.904Z,1002.09
2019-03-06T05:39:44.482Z,1002.39
2019-03-06T05:40:45.061Z,1002.38
2019-03-06T05:41:45.639Z,1002.31
2019-03-06T05:42:46.267Z,1002.33
2019-03-06T05:43:46.846Z,1002.26
2019-03-06T05:44:47.472Z,1002.21
2019-03-06T05:45:48.048Z,1002.43
2019-03-06T05:46:48.627Z,1002.64
2019-03-06T05:47:49.258Z,1002.67
2019-03-06T05:48:50.011Z,1002.64
2019-03-06T05:49:50.589Z,1002.68
2019-03-06T05:50:51.170Z,1002.74
2019-03-06T05:51:51.752Z,1002.69
2019-03-06T05:52:52.328Z,1002.74
2019-03-06T05:53:52.905Z,1002.73
2019-03-06T05:54:53.484Z,1002.70
2019-03-06T05:55:54.111Z,1002.59
2019-03-06T05:56:54.694Z,1002.65
2019-03-06T05:57:55.270Z,1002.59
2019-03-06T05:58:56.028Z,1002.63
2019-03-06T05:59:56.605Z,1002.59
2019-03-06T06:00:57.388Z,1002.54
2019-03-06T06:01:57.970Z,1002.52
2019-03-06T06:02:58.546Z,1002.58
2019-03-06T06:03:59.119Z,1002.58
2019-03-06T06:04:59.695Z,1002.53
2019-03-06T06:06:00.274Z,1002.59
2019-03-06T06:07:00.903Z,1002.59
2019-03-06T06:08:01.479Z,1002.59
2019-03-06T06:09:02.059Z,1002.56
2019-03-06T06:10:02.636Z,1002.45
2019-03-06T06:11:03.211Z,1002.41
2019-03-06T06:12:03.795Z,1002.61
2019-03-06T06:13:04.371Z,1002.48
2019-03-06T06:14:04.950Z,1002.48
2019-03-06T06:15:05.526Z,1002.41
2019-03-06T06:16:06.108Z,1002.43
2019-03-06T06:17:06.685Z,1002.39
2019-03-06T06:18:07.340Z,1002.41
2019-03-06T06:19:07.919Z,1002.50
2019-03-06T06:20:08.493Z,1002.47
2019-03-06T06:21:09.071Z,1002.49
2019-03-06T06:22:09.649Z,1002.46
2019-03-06T06:23:10.227Z,1002.40
2019-03-06T06:24:10.853Z,1002.41
2019-03-06T06:25:11.444Z,1002.39
2019-03-06T06:26:12.008Z,1002.31
2019-03-06T06:27:12.636Z,1002.37
2019-03-06T06:28:13.213Z,1002.37
2019-03-06T06:29:13.794Z,1002.37
2019-03-06T06:30:14.469Z,1002.34
2019-03-06T06:31:15.096Z,1002.37
2019-03-06T06:32:15.725Z,1002.43
2019-03-06T06:33:16.305Z,1002.48
2019-03-06T06:34:16.885Z,1002.48
2019-03-06T06:35:17.460Z,1002.59
2019-03-06T06:36:18.042Z,1002.49
2019-03-06T06:37:18.851Z,1002.50
2019-03-06T06:38:19.429Z,1002.55
2019-03-06T06:39:20.062Z,1002.51
2019-03-06T06:40:20.684Z,1002.55
2019-03-06T06:41:21.260Z,1002.51
2019-03-06T06:42:21.838Z,1002.44
2019-03-06T06:43:22.417Z,1002.47
2019-03-06T06:44:22.990Z,1002.49
2019-03-06T06:45:23.566Z,1002.52
2019-03-06T06:46:24.193Z,1002.54
2019-03-06T06:47:24.765Z,1002.54
2019-03-06T06:48:25.337Z,1002.52
2019-03-06T06:49:25.911Z,1002.48
2019-03-06T06:50:26.480Z,1002.55
2019-03-06T06:51:27.052Z,1002.54
2019-03-06T06:52:27.622Z,1002.59
2019-03-06T06:53:28.243Z,1002.50
2019-03-06T06:54:28.848Z,1002.50
2019-03-06T06:55:29.388Z,1002.55
2019-03-06T06:56:30.169Z,1002.53
2019-03-06T06:57:30.739Z,1002.48
2019-03-06T06:58:31.744Z,1002.54
2019-03-06T06:59:31.926Z,1002.50
2019-03-06T07:00:32.503Z,1002.52
2019-03-06T07:01:33.069Z,1002.50
2019-03-06T07:02:33.641Z,1002.48
2019-03-06T07:03:34.211Z,1002.39
2019-03-06T07:04:34.787Z,1002.40
2019-03-06T07:05:35.399Z,1002.39
2019-03-06T07:06:36.154Z,1002.46
2019-03-06T07:07:36.726Z,1002.44
2019-03-06T07:08:37.299Z,1002.41
2019-03-06T07:09:37.923Z,1002.46
2019-03-06T07:10:38.546Z,1002.62
2019-03-06T07:11:39.119Z,1002.49
2019-03-06T07:12:39.695Z,1002.82
2019-03-06T07:13:40.263Z,1002.77
2019-03-06T07:14:40.837Z,1002.83
2019-03-06T07:15:41.411Z,1002.82
2019-03-06T07:16:42.192Z,1002.75
2019-03-06T07:17:42.766Z,1002.63
2019-03-06T07:18:43.341Z,1002.65
2019-03-06T07:19:43.911Z,1002.75
2019-03-06T07:20:44.485Z,1002.77
2019-03-06T07:21:45.058Z,1002.71
2019-03-06T07:22:45.631Z,1002.81
2019-03-06T07:23:46.254Z,1002.72
2019-03-06T07:24:46.825Z,1002.68
2019-03-06T07:25:47.446Z,1002.63
2019-03-06T07:26:48.196Z,1002.64
2019-03-06T07:27:48.770Z,1002.63
2019-03-06T07:28:49.341Z,1002.64
2019-03-06T07:29:50.115Z,1002.64
2019-03-06T07:30:50.682Z,1002.60
2019-03-06T07:31:51.255Z,1002.73
2019-03-06T07:32:51.866Z,1002.73
2019-03-06T07:33:52.436Z,1002.75
2019-03-06T07:34:53.009Z,1002.74
2019-03-06T07:35:53.580Z,1002.81
2019-03-06T07:36:54.355Z,1002.74
2019-03-06T07:37:54.926Z,1002.76
2019-03-06T07:38:55.501Z,1002.85
2019-03-06T07:39:56.071Z,1002.85
2019-03-06T07:40:56.651Z,1002.90
2019-03-06T07:41:57.419Z,1002.91
2019-03-06T07:42:57.992Z,1002.97
2019-03-06T07:43:58.564Z,1003.02
2019-03-06T07:44:59.185Z,1002.92
2019-03-06T07:47:01.317Z,1003.00
2019-03-06T07:48:01.880Z,1002.97
2019-03-06T07:49:02.445Z,1003.08
2019-03-06T07:50:03.027Z,1003.08
2019-03-06T07:51:03.577Z,1003.17
2019-03-06T07:52:04.142Z,1003.19
2019-03-06T07:53:04.709Z,1003.15
2019-03-06T07:54:05.274Z,1003.19
2019-03-06T07:55:05.840Z,1003.33
2019-03-06T07:56:06.459Z,1003.33
2019-03-06T07:57:07.111Z,1003.36
2019-03-06T07:58:07.719Z,1003.40
2019-03-06T07:59:08.284Z,1003.50
2019-03-06T08:00:08.849Z,1003.57
2019-03-06T08:01:16.864Z,1003.59
2019-03-06T08:02:10.976Z,1003.70
2019-03-06T08:03:11.588Z,1003.76
2019-03-06T08:04:12.205Z,1003.69
2019-03-06T08:05:12.770Z,1003.86
2019-03-06T08:06:13.338Z,1004.02
2019-03-06T08:07:14.093Z,1003.96
2019-03-06T08:08:14.661Z,1004.07
2019-03-06T08:09:15.226Z,1004.04
2019-03-06T08:10:15.792Z,1004.11
2019-03-06T08:11:16.359Z,1004.23
2019-03-06T08:12:16.926Z,1004.23
2019-03-06T08:13:17.502Z,1004.23
2019-03-06T08:14:22.266Z,1004.40
2019-03-06T08:15:19.621Z,1004.37
2019-03-06T08:16:41.957Z,1004.31
2019-03-06T08:17:42.672Z,1004.37
2019-03-06T08:18:43.235Z,1004.44
2019-03-06T08:19:43.802Z,1004.41
2019-03-06T08:20:44.496Z,1004.53
2019-03-06T08:21:45.061Z,1004.57
2019-03-06T08:22:45.629Z,1004.56
2019-03-06T08:23:46.193Z,1004.62
2019-03-06T08:24:46.761Z,1004.57
2019-03-06T08:25:47.370Z,1004.56
2019-03-06T08:26:47.943Z,1004.63
2019-03-06T08:27:48.521Z,1004.77
2019-03-06T08:28:49.092Z,1004.59
2019-03-06T08:29:49.665Z,1004.68
2019-03-06T08:30:50.366Z,1004.63
2019-03-06T08:31:50.934Z,1004.66
2019-03-06T08:32:51.557Z,1004.71
2019-03-06T08:33:52.132Z,1004.75
2019-03-06T08:34:52.755Z,1004.94
2019-03-06T08:35:53.378Z,1004.81
2019-03-06T08:36:53.953Z,1004.89
2019-03-06T08:37:54.573Z,1004.93
2019-03-06T08:38:55.142Z,1004.97
2019-03-06T08:39:55.720Z,1004.95
2019-03-06T08:41:04.003Z,1004.97
2019-03-06T08:41:56.993Z,1005.04
2019-03-06T08:42:57.568Z,1004.92
2019-03-06T08:43:58.146Z,1005.01
2019-03-06T08:44:58.756Z,1004.98
2019-03-06T08:45:59.329Z,1005.05
2019-03-06T08:46:59.901Z,1005.08
2019-03-06T08:48:00.472Z,1005.03
2019-03-06T08:49:01.102Z,1005.19
2019-03-06T08:50:01.827Z,1005.09
2019-03-06T08:51:02.399Z,1005.07
2019-03-06T08:52:02.970Z,1005.11
2019-03-06T08:53:03.597Z,1005.01
2019-03-06T08:54:04.163Z,1005.10
2019-03-06T08:55:04.736Z,1004.97
2019-03-06T08:56:05.307Z,1005.08
2019-03-06T08:57:05.883Z,1004.99
2019-03-06T08:58:06.449Z,1004.96
2019-03-06T08:59:07.021Z,1005.03
2019-03-06T09:00:07.748Z,1005.01
2019-03-06T09:01:08.318Z,1005.05
2019-03-06T09:02:15.262Z,1005.10
2019-03-06T09:03:10.457Z,1005.21
2019-03-06T09:04:11.070Z,1005.28
2019-03-06T09:05:11.642Z,1005.24
2019-03-06T09:07:49.449Z,1005.15
2019-03-06T09:08:50.012Z,1005.18
2019-03-06T09:09:50.626Z,1005.16
2019-03-06T09:10:51.192Z,1005.14
2019-03-06T09:11:51.755Z,1005.06
2019-03-06T09:12:52.322Z,1005.25
2019-03-06T09:13:53.040Z,1005.33
2019-03-06T09:14:53.601Z,1005.47
2019-03-06T09:15:54.350Z,1005.55
2019-03-06T09:16:54.917Z,1005.50
2019-03-06T09:17:55.482Z,1005.54
2019-03-06T09:18:56.046Z,1005.62
2019-03-06T09:19:56.615Z,1005.70
2019-03-06T09:20:57.190Z,1005.74
2019-03-06T09:21:57.743Z,1005.77
2019-03-06T09:22:58.311Z,1005.92
2019-03-06T09:23:58.930Z,1005.96
2019-03-06T09:24:59.492Z,1006.00
2019-03-06T09:26:00.318Z,1006.04
2019-03-06T09:27:00.883Z,1006.14
2019-03-06T09:28:01.449Z,1006.11
2019-03-06T09:29:02.017Z,1006.20
2019-03-06T09:30:02.829Z,1006.21
2019-03-06T09:31:03.555Z,1006.19
2019-03-06T09:32:04.150Z,1006.32
2019-03-06T09:33:04.770Z,1006.19
2019-03-06T09:34:05.335Z,1006.21
2019-03-06T09:35:05.902Z,1006.20
2019-03-06T09:36:06.633Z,1006.21
2019-03-06T09:37:07.200Z,1006.16
2019-03-06T09:38:11.097Z,1006.26
2019-03-06T09:39:09.326Z,1006.23
2019-03-06T09:40:09.893Z,1006.34
2019-03-06T09:41:10.512Z,1006.24
2019-03-06T09:42:11.078Z,1006.36
2019-03-06T09:43:11.694Z,1006.30
2019-03-06T09:44:12.261Z,1006.33
2019-03-06T09:45:12.832Z,1006.47
2019-03-06T09:46:13.395Z,1006.43
2019-03-06T09:47:13.961Z,1006.33
2019-03-06T09:48:14.529Z,1006.36
2019-03-06T09:49:15.094Z,1006.43
2019-03-06T09:50:15.659Z,1006.42
2019-03-06T09:51:16.232Z,1006.38
2019-03-06T09:52:16.793Z,1006.37
2019-03-06T09:53:17.359Z,1006.38
2019-03-06T09:54:17.974Z,1006.52
2019-03-06T09:55:19.070Z,1006.52
2019-03-06T09:56:19.635Z,1006.51
2019-03-06T09:57:20.255Z,1006.50
2019-03-06T09:58:20.820Z,1006.46
2019-03-06T09:59:21.388Z,1006.51
2019-03-06T10:00:21.955Z,1006.56
2019-03-06T10:01:22.522Z,1006.58
2019-03-06T10:02:23.090Z,1006.69
2019-03-06T10:03:23.659Z,1006.68
2019-03-06T10:04:24.225Z,1006.76
2019-03-06T10:05:24.793Z,1006.77
2019-03-06T10:06:25.363Z,1006.86
2019-03-06T10:07:25.974Z,1006.81
2019-03-06T10:08:26.546Z,1006.85
2019-03-06T10:09:27.112Z,1006.86
2019-03-06T10:10:27.674Z,1006.87
2019-03-06T10:11:28.241Z,1006.80
2019-03-06T10:12:28.861Z,1006.80
2019-03-06T10:13:29.426Z,1006.89
2019-03-06T10:14:30.156Z,1006.92
2019-03-06T10:15:30.722Z,1006.96
2019-03-06T10:16:31.288Z,1006.99
2019-03-06T10:17:31.858Z,1006.99
2019-03-06T10:18:32.424Z,1006.95
2019-03-06T10:19:33.042Z,1007.04
2019-03-06T10:20:33.607Z,1007.11
2019-03-06T10:21:34.175Z,1007.22
2019-03-06T10:22:34.741Z,1007.18
2019-03-06T10:23:35.433Z,1007.14
2019-03-06T10:24:36.003Z,1007.23
2019-03-06T10:25:36.566Z,1007.14
2019-03-06T10:26:37.188Z,1007.21
2019-03-06T10:27:37.843Z,1007.10
2019-03-06T10:28:38.408Z,1007.07
2019-03-06T10:29:39.235Z,1007.12
2019-03-06T10:30:39.816Z,1007.18
2019-03-06T10:31:40.368Z,1007.16
2019-03-06T10:32:40.936Z,1007.26
2019-03-06T10:33:41.504Z,1007.23
2019-03-06T10:34:42.310Z,1007.26
2019-03-06T10:35:42.882Z,1007.38
2019-03-06T10:36:43.449Z,1007.33
2019-03-06T10:37:44.020Z,1007.51
2019-03-06T10:38:44.583Z,1007.50
2019-03-06T10:39:45.388Z,1007.48
2019-03-06T10:40:45.957Z,1007.49
2019-03-06T10:41:46.524Z,1007.50
2019-03-06T10:42:47.386Z,1007.63
2019-03-06T10:43:49.737Z,1007.52
2019-03-06T10:44:49.350Z,1007.65
2019-03-06T10:45:49.969Z,1007.58
2019-03-06T10:46:50.536Z,1007.66
2019-03-06T10:47:51.156Z,1007.68
2019-03-06T10:48:51.715Z,1007.67
2019-03-06T10:49:52.484Z,1007.69
2019-03-06T10:50:53.052Z,1007.72
2019-03-06T10:51:53.619Z,1007.64
2019-03-06T10:52:54.185Z,1007.66
2019-03-06T10:53:54.752Z,1007.67
2019-03-06T10:54:55.362Z,1007.63
2019-03-06T10:55:55.932Z,1007.71
2019-03-06T10:56:56.541Z,1007.68
2019-03-06T10:57:57.108Z,1007.77
2019-03-06T10:58:57.726Z,1007.73
2019-03-06T10:59:58.294Z,1007.85
2019-03-06T11:00:58.862Z,1007.80
2019-03-06T11:01:59.478Z,1007.86
2019-03-06T11:03:00.256Z,1007.87
2019-03-06T11:04:00.875Z,1008.01
2019-03-06T11:05:01.448Z,1008.00
2019-03-06T11:06:02.009Z,1007.94
2019-03-06T11:07:02.622Z,1007.93
2019-03-06T11:08:03.394Z,1007.91
2019-03-06T11:09:03.953Z,1007.98
2019-03-06T11:10:04.521Z,1007.99
2019-03-06T11:11:05.091Z,1008.00
2019-03-06T11:12:05.709Z,1008.00
2019-03-06T11:13:06.310Z,1008.08
2019-03-06T11:14:07.547Z,1007.96
2019-03-06T11:15:08.116Z,1007.99
2019-03-06T11:16:08.684Z,1007.90
2019-03-06T11:17:09.252Z,1008.05
2019-03-06T11:18:10.100Z,1008.10
2019-03-06T11:19:10.835Z,1008.10
2019-03-06T11:20:11.400Z,1008.13
2019-03-06T11:21:11.969Z,1008.19
2019-03-06T11:22:12.587Z,1008.10
2019-03-06T11:23:13.153Z,1008.09
2019-03-06T11:24:13.772Z,1008.06
2019-03-06T11:25:14.389Z,1008.07
2019-03-06T11:26:15.007Z,1008.08
2019-03-06T11:27:15.575Z,1008.09
2019-03-06T11:28:16.195Z,1008.12
2019-03-06T11:29:16.764Z,1008.11
2019-03-06T11:30:17.380Z,1008.15
2019-03-06T11:31:17.951Z,1008.16
2019-03-06T11:32:18.517Z,1008.21
2019-03-06T11:33:19.227Z,1008.20
2019-03-06T11:34:19.795Z,1008.29
2019-03-06T11:35:20.404Z,1008.28
2019-03-06T11:36:20.974Z,1008.20
2019-03-06T11:37:21.543Z,1008.21
2019-03-06T11:38:22.208Z,1008.23
2019-03-06T11:39:22.774Z,1008.17
2019-03-06T11:40:23.342Z,1008.20
2019-03-06T11:41:23.964Z,1008.17
2019-03-06T11:42:24.548Z,1008.19
2019-03-06T11:43:25.108Z,1008.31
2019-03-06T11:44:25.727Z,1008.22
2019-03-06T11:45:26.345Z,1008.18
2019-03-06T11:46:26.912Z,1008.28
2019-03-06T11:47:27.529Z,1008.10
2019-03-06T11:48:28.147Z,1008.29
2019-03-06T11:49:28.715Z,1008.21
2019-03-06T11:50:29.288Z,1008.20
2019-03-06T11:51:29.902Z,1008.14
2019-03-06T11:52:30.469Z,1008.18
2019-03-06T11:53:32.909Z,1008.25
2019-03-06T11:54:32.607Z,1008.23
2019-03-06T11:55:33.173Z,1008.16
2019-03-06T11:56:33.740Z,1008.25
2019-03-06T11:57:34.359Z,1008.30
2019-03-06T11:58:35.059Z,1008.30
2019-03-06T11:59:35.626Z,1008.35
2019-03-06T12:00:36.247Z,1008.35
2019-03-06T12:01:36.821Z,1008.33
2019-03-06T12:02:37.427Z,1008.31
2019-03-06T12:03:38.046Z,1008.40
2019-03-06T12:04:38.664Z,1008.46
2019-03-06T12:05:39.233Z,1008.32
2019-03-06T12:06:39.798Z,1008.43
2019-03-06T12:07:40.418Z,1008.34
2019-03-06T12:08:45.523Z,1008.35
2019-03-06T12:09:42.547Z,1008.36
2019-03-06T12:10:43.116Z,1008.37
2019-03-06T12:11:43.683Z,1008.38
2019-03-06T12:12:44.250Z,1008.44
2019-03-06T12:13:44.817Z,1008.39
2019-03-06T12:14:45.386Z,1008.42
2019-03-06T12:15:46.119Z,1008.40